Time;durP1;ratioP1;P1;durP2;ratioP2;P2;SDS_P1;SDS_P2;PMS_P1;PMS_P2;Temp;Humidity;BMP_temperature;BMP_pressure;BME280_temperature;BME280_humidity;BME280_pressure;Samples;Min_cycle;Max_cycle;Signal;HPM_P1;HPM_P2
2022/08/17 00:00:23;;;;;;;63.33;30.17;;;;;;;;;;6180695;23;20363;-61
2022/08/17 00:03:13;;;;;;;64.57;30.13;;;;;;;;;;6179384;23;20549;-64
2022/08/17 00:05:51;;;;;;;46.50;26.38;;;;;;;;;;6180361;23;20391;-64
2022/08/17 00:08:20;;;;;;;59.80;29.30;;;;;;;;;;6180013;23;20362;-64
2022/08/17 00:10:55;;;;;;;60.13;29.83;;;;;;;;;;6180486;23;20024;-63
2022/08/17 00:13:33;;;;;;;67.22;30.55;;;;;;;;;;6180338;23;20025;-64
2022/08/17 00:16:10;;;;;;;69.78;31.17;;;;;;;;;;6180347;23;20394;-59
2022/08/17 00:18:38;;;;;;;70.85;29.95;;;;;;;;;;6180331;23;20028;-59
2022/08/17 00:21:26;;;;;;;60.67;29.80;;;;;;;;;;6179669;23;20027;-58
2022/08/17 00:24:28;;;;;;;55.85;27.00;;;;;;;;;;6179924;23;20336;-58
2022/08/17 00:26:55;;;;;;;62.88;28.40;;;;;;;;;;6180674;23;20068;-59
2022/08/17 00:29:29;;;;;;;76.55;32.78;;;;;;;;;;6180314;23;20033;-58
2022/08/17 00:31:56;;;;;;;68.35;30.95;;;;;;;;;;6180849;23;20021;-59
2022/08/17 00:34:24;;;;;;;69.65;32.10;;;;;;;;;;6181304;23;20025;-59
2022/08/17 00:36:59;;;;;;;68.45;31.40;;;;;;;;;;6180911;23;20088;-62
2022/08/17 00:39:26;;;;;;;67.97;32.17;;;;;;;;;;6180588;23;20029;-56
2022/08/17 00:41:53;;;;;;;74.25;33.10;;;;;;;;;;6180379;23;20031;-54
2022/08/17 00:44:27;;;;;;;61.78;30.67;;;;;;;;;;6180238;23;20076;-56
2022/08/17 00:46:57;;;;;;;47.60;25.25;;;;;;;;;;6180401;23;20024;-55
2022/08/17 00:49:25;;;;;;;61.05;28.42;;;;;;;;;;6180587;23;20025;-54
2022/08/17 00:52:05;;;;;;;71.43;30.23;;;;;;;;;;6179628;23;20032;-53
2022/08/17 00:54:38;;;;;;;74.80;32.88;;;;;;;;;;6180108;23;20104;-63
2022/08/17 00:57:15;;;;;;;64.95;30.25;;;;;;;;;;6179541;23;20040;-66
2022/08/17 00:59:46;;;;;;;62.38;29.92;;;;;;;;;;6179518;23;20025;-55
2022/08/17 01:02:31;;;;;;;71.78;33.75;;;;;;;;;;6180508;23;20021;-56
2022/08/17 01:05:07;;;;;;;;;;;;;;;;;;6179306;23;20024;-56
2022/08/17 01:07:43;;;;;;;64.05;31.25;;;;;;;;;;6180747;23;19917;-55
2022/08/17 01:10:12;;;;;;;76.40;34.53;;;;;;;;;;6179886;23;20044;-57
2022/08/17 01:13:03;;;;;;;80.05;35.00;;;;;;;;;;6177870;23;20455;-64
2022/08/17 01:15:38;;;;;;;79.60;37.67;;;;;;;;;;6179475;23;20025;-59
2022/08/17 01:18:08;;;;;;;82.93;37.90;;;;;;;;;;6179208;23;20537;-67
2022/08/17 01:20:37;;;;;;;82.78;36.85;;;;;;;;;;6180403;23;20025;-67
2022/08/17 01:23:22;;;;;;;79.20;36.05;;;;;;;;;;6180919;23;20055;-66
2022/08/17 01:25:51;;;;;;;74.05;35.33;;;;;;;;;;6181489;23;20032;-67
2022/08/17 01:28:26;;;;;;;71.45;33.88;;;;;;;;;;6180768;23;20029;-67
2022/08/17 01:31:14;;;;;;;69.57;35.50;;;;;;;;;;6180642;23;20473;-67
2022/08/17 01:33:47;;;;;;;68.93;34.63;;;;;;;;;;6181756;23;20021;-56
2022/08/17 01:36:14;;;;;;;75.82;36.22;;;;;;;;;;6181600;23;20032;-63
2022/08/17 01:38:42;;;;;;;73.20;34.55;;;;;;;;;;6182241;23;20079;-64
2022/08/17 01:41:16;;;;;;;86.25;39.20;;;;;;;;;;6180700;23;20232;-64
2022/08/17 01:43:46;;;;;;;73.15;35.50;;;;;;;;;;6180683;23;20021;-64
2022/08/17 01:46:20;;;;;;;74.95;38.10;;;;;;;;;;6181833;23;20032;-63
2022/08/17 01:48:56;;;;;;;78.47;38.83;;;;;;;;;;6180012;23;20033;-64
2022/08/17 01:51:31;;;;;;;66.32;36.30;;;;;;;;;;6181954;23;20028;-51
2022/08/17 01:54:10;;;;;;;77.53;38.55;;;;;;;;;;6180022;23;20572;-54
2022/08/17 01:56:39;;;;;;;83.32;39.75;;;;;;;;;;6181408;23;20021;-51
2022/08/17 01:59:13;;;;;;;69.22;36.00;;;;;;;;;;6179266;23;20399;-54
2022/08/17 02:01:42;;;;;;;79.63;38.42;;;;;;;;;;6181193;23;20021;-51
2022/08/17 02:04:09;;;;;;;86.30;40.72;;;;;;;;;;6181100;23;20025;-51
2022/08/17 02:06:43;;;;;;;84.82;39.45;;;;;;;;;;6181988;23;20025;-50
2022/08/17 02:09:21;;;;;;;99.45;41.20;;;;;;;;;;6180180;23;20139;-51
2022/08/17 02:11:57;;;;;;;93.50;40.83;;;;;;;;;;6181222;23;20083;-59
2022/08/17 02:14:24;;;;;;;97.43;42.58;;;;;;;;;;6179607;23;20609;-61
2022/08/17 02:16:52;;;;;;;89.90;42.35;;;;;;;;;;6181104;23;20402;-61
2022/08/17 02:19:26;;;;;;;100.45;43.10;;;;;;;;;;6180790;23;20033;-62
2022/08/17 02:22:00;;;;;;;82.88;41.25;;;;;;;;;;6181133;23;20087;-62
2022/08/17 02:24:41;;;;;;;97.97;44.70;;;;;;;;;;6180447;23;20071;-61
2022/08/17 02:27:28;;;;;;;99.57;47.20;;;;;;;;;;6181405;23;20029;-61
2022/08/17 02:30:02;;;;;;;99.47;47.42;;;;;;;;;;6178234;23;20044;-54
2022/08/17 02:32:51;;;;;;;92.95;45.10;;;;;;;;;;6180553;23;20108;-59
2022/08/17 02:35:24;;;;;;;98.60;45.10;;;;;;;;;;6180172;23;20396;-57
2022/08/17 02:37:51;;;;;;;99.75;46.28;;;;;;;;;;6181627;23;20029;-55
2022/08/17 02:40:23;;;;;;;96.00;46.97;;;;;;;;;;6180265;23;20107;-53
2022/08/17 02:43:02;;;;;;;71.68;38.47;;;;;;;;;;6181561;23;20100;-56
2022/08/17 02:45:30;;;;;;;101.30;49.60;;;;;;;;;;6178879;23;20091;-54
2022/08/17 02:48:04;;;;;;;112.20;51.53;;;;;;;;;;6181760;23;20029;-56
2022/08/17 02:50:31;;;;;;;118.28;52.15;;;;;;;;;;6181567;23;20025;-58
2022/08/17 02:52:58;;;;;;;124.90;50.75;;;;;;;;;;6180726;23;20083;-58
2022/08/17 02:55:34;;;;;;;127.95;52.92;;;;;;;;;;6181009;23;20021;-53
2022/08/17 02:58:02;;;;;;;128.35;54.88;;;;;;;;;;6181116;23;20028;-56
2022/08/17 03:00:49;;;;;;;130.02;55.70;;;;;;;;;;6177678;23;20018;-56
2022/08/17 03:03:25;;;;;;;141.77;56.20;;;;;;;;;;6181226;23;20025;-56
2022/08/17 03:05:52;;;;;;;131.95;57.42;;;;;;;;;;6179143;23;20482;-55
2022/08/17 03:08:19;;;;;;;118.05;54.22;;;;;;;;;;6180362;23;20459;-66
2022/08/17 03:10:53;;;;;;;129.85;54.53;;;;;;;;;;6179182;23;20036;-58
2022/08/17 03:13:21;;;;;;;;;;;;;;;;;;6181216;23;20028;-53
2022/08/17 03:15:49;;;;;;;118.60;52.80;;;;;;;;;;6179024;23;20334;-54
2022/08/17 03:18:24;;;;;;;159.00;59.25;;;;;;;;;;6180316;23;20462;-54
2022/08/17 03:20:54;;;;;;;168.68;60.00;;;;;;;;;;6179060;23;20100;-51
2022/08/17 03:23:21;;;;;;;169.60;61.63;;;;;;;;;;6179369;23;20328;-52
2022/08/17 03:25:57;;;;;;;261.15;66.80;;;;;;;;;;6179523;23;20108;-49
2022/08/17 03:28:24;;;;;;;149.65;59.92;;;;;;;;;;6180259;23;20025;-56
2022/08/17 03:30:51;;;;;;;155.85;62.13;;;;;;;;;;6180798;23;20021;-59
2022/08/17 03:33:25;;;;;;;155.70;59.90;;;;;;;;;;6181358;23;20052;-59
2022/08/17 03:35:52;;;;;;;156.90;62.10;;;;;;;;;;6180750;23;20091;-59
2022/08/17 03:38:20;;;;;;;168.38;61.47;;;;;;;;;;6180976;23;20048;-59
2022/08/17 03:40:54;;;;;;;172.38;64.13;;;;;;;;;;6179476;23;20049;-59
2022/08/17 03:43:29;;;;;;;172.93;62.75;;;;;;;;;;6180323;23;20018;-58
2022/08/17 03:57:32;;;;;;;612.35;84.30;;;;;;;;;;6180173;23;20021;-56
2022/08/17 03:59:59;;;;;;;257.75;65.70;;;;;;;;;;6180422;23;20021;-55
2022/08/17 04:02:28;;;;;;;219.38;67.53;;;;;;;;;;6180441;23;20458;-54
2022/08/17 04:05:02;;;;;;;155.18;58.50;;;;;;;;;;6180762;23;20021;-64
2022/08/17 04:07:30;;;;;;;182.80;61.25;;;;;;;;;;6180326;23;20025;-54
2022/08/17 04:09:58;;;;;;;196.25;67.70;;;;;;;;;;6180615;23;20029;-59
2022/08/17 04:12:43;;;;;;;131.68;60.10;;;;;;;;;;6180011;23;20029;-58
2022/08/17 04:15:11;;;;;;;117.45;59.95;;;;;;;;;;6180544;23;20025;-59
2022/08/17 04:17:45;;;;;;;129.10;60.53;;;;;;;;;;6179286;23;20021;-59
2022/08/17 04:20:14;;;;;;;102.95;55.55;;;;;;;;;;6179713;23;20099;-59
2022/08/17 04:23:03;;;;;;;135.93;64.80;;;;;;;;;;6179480;23;20068;-59
2022/08/17 04:25:40;;;;;;;127.07;59.45;;;;;;;;;;6178857;23;20474;-61
2022/08/17 04:28:07;;;;;;;135.55;63.65;;;;;;;;;;6179471;23;20025;-58
2022/08/17 04:30:43;;;;;;;143.18;66.00;;;;;;;;;;6179662;23;20021;-58
2022/08/17 04:33:23;;;;;;;159.50;68.25;;;;;;;;;;6178939;23;20026;-57
2022/08/17 04:35:51;;;;;;;137.20;65.20;;;;;;;;;;6179870;23;20029;-60
2022/08/17 04:38:27;;;;;;;150.95;66.00;;;;;;;;;;6178490;23;20021;-59
2022/08/17 04:43:48;;;;;;;158.80;69.30;;;;;;;;;;6177687;23;20028;-67
2022/08/17 04:46:17;;;;;;;129.15;61.25;;;;;;;;;;6178607;23;20072;-59
2022/08/17 04:48:48;;;;;;;112.35;57.75;;;;;;;;;;6179501;23;20024;-57
2022/08/17 04:51:27;;;;;;;134.52;65.43;;;;;;;;;;6180254;23;20029;-59
2022/08/17 04:53:56;;;;;;;128.05;63.20;;;;;;;;;;6179214;23;20072;-58
2022/08/17 04:56:30;;;;;;;130.43;59.92;;;;;;;;;;6179676;23;20047;-59
2022/08/17 04:58:59;;;;;;;118.75;60.20;;;;;;;;;;6180449;23;20025;-58
2022/08/17 05:01:28;;;;;;;121.80;62.63;;;;;;;;;;6181270;23;20024;-58
2022/08/17 05:04:03;;;;;;;103.72;57.10;;;;;;;;;;6180902;23;20053;-61
2022/08/17 05:06:50;;;;;;;102.18;57.13;;;;;;;;;;6180697;23;20050;-59
2022/08/17 05:09:24;;;;;;;109.30;57.65;;;;;;;;;;6181725;23;20087;-58
2022/08/17 05:11:52;;;;;;;99.57;54.53;;;;;;;;;;6182320;23;20044;-59
2022/08/17 05:14:21;;;;;;;86.97;50.85;;;;;;;;;;6181566;23;20032;-58
2022/08/17 05:16:59;;;;;;;72.47;46.83;;;;;;;;;;6182164;23;20053;-58
2022/08/17 05:19:27;;;;;;;64.68;41.67;;;;;;;;;;6181653;23;20056;-59
2022/08/17 05:21:54;;;;;;;86.50;50.92;;;;;;;;;;6182001;23;20493;-51
2022/08/17 05:24:35;;;;;;;83.35;51.53;;;;;;;;;;6182271;23;20036;-53
2022/08/17 05:27:09;;;;;;;77.55;47.55;;;;;;;;;;6182016;23;20433;-56
2022/08/17 05:29:45;;;;;;;90.85;51.85;;;;;;;;;;6182064;23;20032;-54
2022/08/17 05:32:13;;;;;;;86.47;50.55;;;;;;;;;;6181955;23;20025;-54
2022/08/17 05:35:00;;;;;;;72.90;47.15;;;;;;;;;;6180893;23;20059;-52
2022/08/17 05:37:34;;;;;;;86.28;51.25;;;;;;;;;;6182351;23;20025;-51
2022/08/17 05:40:01;;;;;;;77.00;48.20;;;;;;;;;;6182019;23;20060;-48
2022/08/17 05:42:29;;;;;;;;;;;;;;;;;;6183122;23;20470;-56
2022/08/17 05:45:03;;;;;;;50.75;38.08;;;;;;;;;;6181776;23;19947;-66
2022/08/17 05:47:30;;;;;;;;;;;;;;;;;;6182975;23;20025;-67
2022/08/17 05:49:57;;;;;;;64.13;44.45;;;;;;;;;;6182209;23;19963;-67
2022/08/17 05:52:45;;;;;;;62.38;41.90;;;;;;;;;;6182340;23;20665;-67
2022/08/17 05:55:36;;;;;;;54.05;37.90;;;;;;;;;;6181474;23;20028;-66
2022/08/17 05:58:13;;;;;;;54.85;38.17;;;;;;;;;;6181929;23;20426;-67
2022/08/17 06:00:50;;;;;;;51.60;37.05;;;;;;;;;;6182088;23;20025;-63
2022/08/17 06:03:34;;;;;;;39.78;29.58;;;;;;;;;;6181650;23;20741;-58
2022/08/17 06:06:09;;;;;;;44.10;32.08;;;;;;;;;;6181809;23;20100;-58
2022/08/17 06:08:52;;;;;;;43.75;31.65;;;;;;;;;;6181995;23;20454;-59
2022/08/17 06:11:25;;;;;;;49.95;33.53;;;;;;;;;;6181655;23;20048;-58
2022/08/17 06:14:15;;;;;;;33.10;25.38;;;;;;;;;;6181632;23;20025;-58
2022/08/17 06:16:44;;;;;;;41.90;30.75;;;;;;;;;;6182478;23;20021;-59
2022/08/17 06:19:27;;;;;;;36.75;28.00;;;;;;;;;;6181484;23;20025;-61
2022/08/17 06:21:55;;;;;;;39.20;27.42;;;;;;;;;;6182044;23;20028;-64
2022/08/17 06:24:38;;;;;;;32.53;24.88;;;;;;;;;;6151407;23;20022;-64
2022/08/17 06:27:13;;;;;;;30.50;23.63;;;;;;;;;;6152259;23;20022;-64
2022/08/17 06:29:52;;;;;;;31.63;23.65;;;;;;;;;;6151604;23;20026;-64
2022/08/17 06:32:20;;;;;;;25.33;20.98;;;;;;;;;;6151951;23;20041;-64
2022/08/17 06:34:54;;;;;;;30.42;22.08;;;;;;;;;;6151904;23;20025;-65
2022/08/17 06:37:31;;;;;;;27.63;22.15;;;;;;;;;;6152572;23;20022;-55
2022/08/17 06:40:24;;;;;;;27.08;21.38;;;;;;;;;;6152146;23;20021;-59
2022/08/17 06:43:14;;;;;;;27.23;20.45;;;;;;;;;;6151873;23;20497;-65
2022/08/17 06:45:50;;;;;;;28.52;20.83;;;;;;;;;;6150421;23;20064;-65
2022/08/17 06:48:23;;;;;;;22.80;18.85;;;;;;;;;;6150917;23;20146;-64
2022/08/17 06:51:03;;;;;;;28.23;19.42;;;;;;;;;;6151283;23;20092;-65
2022/08/17 06:53:32;;;;;;;21.45;17.88;;;;;;;;;;6151003;23;20137;-65
2022/08/17 06:56:08;;;;;;;20.88;16.65;;;;;;;;;;6150760;23;20084;-60
2022/08/17 06:58:37;;;;;;;21.42;16.77;;;;;;;;;;6150596;23;20052;-67
2022/08/17 07:01:09;;;;;;;21.40;17.52;;;;;;;;;;6149232;23;20478;-59
2022/08/17 07:03:48;;;;;;;22.10;16.50;;;;;;;;;;6151165;23;20477;-59
2022/08/17 07:06:17;;;;;;;20.40;16.65;;;;;;;;;;6150833;23;20026;-60
2022/08/17 07:09:02;;;;;;;19.00;15.77;;;;;;;;;;6151146;23;20064;-59
2022/08/17 07:11:29;;;;;;;;;;;;;;;;;;6151412;23;20466;-59
2022/08/17 07:14:06;;;;;;;24.08;17.95;;;;;;;;;;6150457;23;19951;-59
2022/08/17 07:16:54;;;;;;;26.20;16.92;;;;;;;;;;6149625;23;20025;-59
2022/08/17 07:19:31;;;;;;;21.55;16.52;;;;;;;;;;6150941;23;20033;-60
2022/08/17 07:22:12;;;;;;;23.80;15.95;;;;;;;;;;6150812;23;20033;-60
2022/08/17 07:24:50;;;;;;;26.23;16.27;;;;;;;;;;6180046;23;20474;-59
2022/08/17 07:27:22;;;;;;;17.83;14.25;;;;;;;;;;6181817;23;20048;-60
2022/08/17 07:30:10;;;;;;;18.58;15.80;;;;;;;;;;6180809;23;20422;-60
2022/08/17 07:32:49;;;;;;;18.08;14.57;;;;;;;;;;6180907;23;20025;-60
2022/08/17 07:35:29;;;;;;;25.42;15.98;;;;;;;;;;6180516;23;20350;-67
2022/08/17 07:38:29;;;;;;;17.65;13.60;;;;;;;;;;6180459;23;20355;-63
2022/08/17 07:41:05;;;;;;;21.98;12.63;;;;;;;;;;6181106;23;20083;-59
2022/08/17 07:43:32;;;;;;;15.15;13.50;;;;;;;;;;6181372;23;20466;-60
2022/08/17 07:49:06;;;;;;;22.17;13.75;;;;;;;;;;6180873;23;20063;-60
2022/08/17 07:51:36;;;;;;;23.58;13.40;;;;;;;;;;6180000;23;20025;-59
2022/08/17 07:54:18;;;;;;;15.65;13.32;;;;;;;;;;6180555;23;20075;-58
2022/08/17 07:56:49;;;;;;;15.75;12.68;;;;;;;;;;6179740;23;20021;-67
2022/08/17 07:59:32;;;;;;;14.80;12.60;;;;;;;;;;6180574;23;20073;-61
2022/08/17 08:02:01;;;;;;;19.92;12.95;;;;;;;;;;6180489;23;20021;-61
2022/08/17 08:04:39;;;;;;;16.35;12.73;;;;;;;;;;6180387;23;20470;-61
2022/08/17 08:07:29;;;;;;;17.05;12.07;;;;;;;;;;6180879;23;20080;-61
2022/08/17 08:10:19;;;;;;;17.60;12.55;;;;;;;;;;6179135;23;20024;-61
2022/08/17 08:12:47;;;;;;;15.20;12.13;;;;;;;;;;6180721;23;20541;-50
2022/08/17 08:15:32;;;;;;;18.73;12.35;;;;;;;;;;6181145;23;20052;-60
2022/08/17 08:18:19;;;;;;;20.15;12.40;;;;;;;;;;6180928;23;20021;-57
2022/08/17 08:21:23;;;;;;;15.18;11.82;;;;;;;;;;6180139;23;20017;-56
2022/08/17 08:24:09;;;;;;;14.45;12.57;;;;;;;;;;6180613;23;20111;-55
2022/08/17 08:26:54;;;;;;;15.88;12.20;;;;;;;;;;6156406;23;20063;-57
2022/08/17 08:29:30;;;;;;;19.15;12.30;;;;;;;;;;6182565;23;20025;-56
2022/08/17 08:32:04;;;;;;;14.80;11.48;;;;;;;;;;6182498;23;20021;-67
2022/08/17 08:34:50;;;;;;;16.08;12.20;;;;;;;;;;6182261;23;20056;-63
2022/08/17 08:37:41;;;;;;;18.65;11.90;;;;;;;;;;6183494;23;20236;-61
2022/08/17 08:40:28;;;;;;;19.10;12.10;;;;;;;;;;6181104;23;20103;-61
2022/08/17 08:43:11;;;;;;;17.90;11.98;;;;;;;;;;6181745;23;20733;-61
2022/08/17 08:45:44;;;;;;;14.05;11.35;;;;;;;;;;6182442;23;20522;-61
2022/08/17 08:48:34;;;;;;;16.63;11.60;;;;;;;;;;6182114;23;20021;-61
2022/08/17 08:51:29;;;;;;;16.13;11.70;;;;;;;;;;6182381;23;20021;-60
2022/08/17 08:54:11;;;;;;;20.05;11.43;;;;;;;;;;6183037;23;20020;-60
2022/08/17 08:56:43;;;;;;;17.05;11.63;;;;;;;;;;6181593;23;20025;-60
2022/08/17 08:59:55;;;;;;;12.17;10.70;;;;;;;;;;6182676;23;20100;-60
2022/08/17 09:02:27;;;;;;;20.80;10.90;;;;;;;;;;6182591;23;20248;-60
2022/08/17 09:05:02;;;;;;;16.37;9.83;;;;;;;;;;6181428;23;20741;-60
2022/08/17 09:07:57;;;;;;;15.48;10.10;;;;;;;;;;6183030;23;20031;-60
2022/08/17 09:10:44;;;;;;;11.35;9.82;;;;;;;;;;6181935;23;20075;-53
2022/08/17 09:13:18;;;;;;;13.20;10.30;;;;;;;;;;6181789;23;20025;-48
2022/08/17 09:15:58;;;;;;;17.35;10.98;;;;;;;;;;6181693;23;20021;-48
2022/08/17 09:18:28;;;;;;;10.75;9.57;;;;;;;;;;6182109;23;20021;-46
2022/08/17 09:21:21;;;;;;;13.27;9.63;;;;;;;;;;6182013;23;20099;-47
2022/08/17 09:23:50;;;;;;;;;;;;;;;;;;6182813;23;20021;-53
2022/08/17 09:26:36;;;;;;;11.73;10.00;;;;;;;;;;6182465;23;19920;-49
2022/08/17 09:29:13;;;;;;;13.13;9.65;;;;;;;;;;6182665;23;20025;-55
2022/08/17 09:31:55;;;;;;;11.30;9.98;;;;;;;;;;6182085;23;20034;-56
2022/08/17 09:34:34;;;;;;;11.52;9.43;;;;;;;;;;6182067;23;20354;-56
2022/08/17 09:37:25;;;;;;;12.77;9.55;;;;;;;;;;6182113;23;20048;-55
2022/08/17 09:40:12;;;;;;;11.82;9.38;;;;;;;;;;6181895;23;20084;-55
2022/08/17 09:42:53;;;;;;;11.32;9.23;;;;;;;;;;6182031;23;20031;-57
2022/08/17 09:45:41;;;;;;;12.65;8.68;;;;;;;;;;6182197;23;20088;-60
2022/08/17 09:48:18;;;;;;;12.00;8.57;;;;;;;;;;6181401;23;20021;-62
2022/08/17 09:50:55;;;;;;;11.95;8.45;;;;;;;;;;6181997;23;20021;-56
2022/08/17 09:53:32;;;;;;;11.10;9.00;;;;;;;;;;6182458;23;20406;-56
2022/08/17 09:55:59;;;;;;;;;;;;;;;;;;6182162;23;20367;-55
2022/08/17 09:58:36;;;;;;;14.30;8.45;;;;;;;;;;6182028;23;19955;-55
2022/08/17 10:01:30;;;;;;;9.75;8.75;;;;;;;;;;6182208;23;20079;-56
2022/08/17 10:04:10;;;;;;;12.00;8.63;;;;;;;;;;6181294;23;20021;-55
2022/08/17 10:06:58;;;;;;;11.40;8.80;;;;;;;;;;6181349;23;20072;-54
2022/08/17 10:10:01;;;;;;;9.57;8.57;;;;;;;;;;6182178;23;20025;-54
2022/08/17 10:12:52;;;;;;;12.57;9.15;;;;;;;;;;6033420;23;20103;-56
2022/08/17 10:15:35;;;;;;;10.02;8.23;;;;;;;;;;6177786;23;20032;-55
2022/08/17 10:18:21;;;;;;;9.80;8.13;;;;;;;;;;6181408;23;20058;-55
2022/08/17 10:20:51;;;;;;;11.65;8.82;;;;;;;;;;6180781;23;20029;-53
2022/08/17 10:26:28;;;;;;;10.88;8.13;;;;;;;;;;6181033;23;20084;-60
2022/08/17 10:29:24;;;;;;;11.40;8.02;;;;;;;;;;6181420;23;20058;-67
2022/08/17 10:32:00;;;;;;;11.57;7.68;;;;;;;;;;6180647;23;20029;-66
2022/08/17 10:34:49;;;;;;;13.65;8.13;;;;;;;;;;6181532;23;20017;-67
2022/08/17 10:37:19;;;;;;;9.13;7.57;;;;;;;;;;6180139;23;20049;-67
2022/08/17 10:40:31;;;;;;;9.57;7.80;;;;;;;;;;6182177;23;20025;-67
2022/08/17 10:43:18;;;;;;;10.65;7.28;;;;;;;;;;6032762;23;20023;-66
2022/08/17 10:46:00;;;;;;;11.02;7.32;;;;;;;;;;6181181;23;20029;-54
2022/08/17 10:49:09;;;;;;;10.73;7.60;;;;;;;;;;6180346;23;20422;-62
2022/08/17 10:51:44;;;;;;;9.13;7.28;;;;;;;;;;6181440;23;20036;-62
2022/08/17 10:54:32;;;;;;;10.68;7.80;;;;;;;;;;6180904;23;20017;-62
2022/08/17 10:57:28;;;;;;;9.88;7.28;;;;;;;;;;6113475;23;20028;-62
2022/08/17 10:59:56;;;;;;;8.65;6.90;;;;;;;;;;6179380;23;20017;-62
2022/08/17 11:02:49;;;;;;;9.50;7.43;;;;;;;;;;6180530;23;20474;-62
2022/08/17 11:05:35;;;;;;;10.63;7.10;;;;;;;;;;6180309;23;20025;-54
2022/08/17 11:08:13;;;;;;;8.10;7.30;;;;;;;;;;6181349;23;20029;-60
2022/08/17 11:10:55;;;;;;;12.15;6.63;;;;;;;;;;6180933;23;20021;-60
2022/08/17 11:13:47;;;;;;;10.07;6.47;;;;;;;;;;6181658;23;20463;-60
2022/08/17 11:16:33;;;;;;;7.88;6.43;;;;;;;;;;6180142;23;20032;-58
2022/08/17 11:19:26;;;;;;;13.20;6.57;;;;;;;;;;6180326;23;20032;-60
2022/08/17 11:21:53;;;;;;;12.63;6.60;;;;;;;;;;6180505;23;20032;-59
2022/08/17 11:24:47;;;;;;;8.02;6.43;;;;;;;;;;6178811;23;20485;-54
2022/08/17 11:27:33;;;;;;;12.25;7.57;;;;;;;;;;6180538;23;20029;-55
2022/08/17 11:30:10;;;;;;;8.88;7.13;;;;;;;;;;6180397;23;20064;-55
2022/08/17 11:32:41;;;;;;;8.13;6.88;;;;;;;;;;6180448;23;20025;-56
2022/08/17 11:35:20;;;;;;;10.65;6.65;;;;;;;;;;6180580;23;20039;-55
2022/08/17 11:38:07;;;;;;;11.93;6.88;;;;;;;;;;6180933;23;20017;-54
2022/08/17 11:41:03;;;;;;;10.00;6.75;;;;;;;;;;6179271;23;20485;-53
2022/08/17 11:43:34;;;;;;;9.30;6.93;;;;;;;;;;6181174;23;20029;-60
2022/08/17 11:51:32;;;;;;;10.93;7.18;;;;;;;;;;6179935;23;20032;-55
2022/08/17 11:52:35;;;;;;;9.73;6.97;;;;;;;;;;6180620;23;20049;-51
2022/08/17 11:55:05;;;;;;;10.45;6.65;;;;;;;;;;6178978;23;20458;-53
2022/08/17 11:58:25;;;;;;;9.10;6.70;;;;;;;;;;6179903;23;20108;-57
2022/08/17 12:00:55;;;;;;;9.10;6.47;;;;;;;;;;6179884;23;20033;-61
2022/08/17 12:03:32;;;;;;;8.27;7.10;;;;;;;;;;6179757;23;20055;-53
2022/08/17 12:06:02;;;;;;;8.90;6.35;;;;;;;;;;6180050;23;20029;-54
2022/08/17 12:08:40;;;;;;;8.35;6.18;;;;;;;;;;6180262;23;20021;-55
2022/08/17 12:11:15;;;;;;;6.97;6.28;;;;;;;;;;6179892;23;20025;-53
2022/08/17 12:14:10;;;;;;;12.63;6.88;;;;;;;;;;6179907;23;20120;-54
2022/08/17 12:16:44;;;;;;;6.82;6.00;;;;;;;;;;6180202;23;20104;-55
2022/08/17 12:19:20;;;;;;;10.52;6.13;;;;;;;;;;6180294;23;20458;-56
2022/08/17 12:21:48;;;;;;;10.15;6.50;;;;;;;;;;6179949;23;20025;-54
2022/08/17 12:24:32;;;;;;;11.52;6.93;;;;;;;;;;6179315;23;20096;-56
2022/08/17 12:27:19;;;;;;;8.63;5.97;;;;;;;;;;6180054;23;20029;-56
2022/08/17 12:30:11;;;;;;;9.32;5.80;;;;;;;;;;6179633;23;20104;-53
2022/08/17 12:32:47;;;;;;;8.98;6.03;;;;;;;;;;6179485;23;20470;-56
2022/08/17 12:35:28;;;;;;;15.90;6.72;;;;;;;;;;6179692;23;20064;-56
2022/08/17 12:38:05;;;;;;;;;;;;;;;;;;6180700;23;20091;-51
2022/08/17 12:40:32;;;;;;;8.15;5.70;;;;;;;;;;6180108;23;19943;-51
2022/08/17 12:42:59;;;;;;;;;;;;;;;;;;6180840;23;20025;-53
2022/08/17 12:45:38;;;;;;;10.00;5.90;;;;;;;;;;6180329;23;19967;-55
2022/08/17 12:48:10;;;;;;;8.35;6.07;;;;;;;;;;6180129;23;20091;-55
2022/08/17 12:50:45;;;;;;;7.78;6.03;;;;;;;;;;6180276;23;20044;-49
2022/08/17 12:53:12;;;;;;;;;;;;;;;;;;6180638;23;20021;-52
2022/08/17 12:55:40;;;;;;;7.55;5.88;;;;;;;;;;6179733;23;19917;-51
2022/08/17 12:58:18;;;;;;;11.63;6.05;;;;;;;;;;6180422;23;20463;-54
2022/08/17 13:00:48;;;;;;;14.65;6.28;;;;;;;;;;6181018;23;20021;-60
2022/08/17 13:03:25;;;;;;;9.93;6.07;;;;;;;;;;6181154;23;20025;-58
2022/08/17 13:05:52;;;;;;;8.43;6.18;;;;;;;;;;6179479;23;20413;-57
2022/08/17 13:08:22;;;;;;;7.15;6.07;;;;;;;;;;6179880;23;20029;-58
2022/08/17 13:11:01;;;;;;;12.27;5.93;;;;;;;;;;6180325;23;20025;-56
2022/08/17 13:13:30;;;;;;;10.30;6.15;;;;;;;;;;6181570;23;20021;-58
2022/08/17 13:16:15;;;;;;;11.57;5.82;;;;;;;;;;6181377;23;20091;-58
2022/08/17 13:18:44;;;;;;;8.70;6.30;;;;;;;;;;6182952;23;20025;-51
2022/08/17 13:21:18;;;;;;;6.78;6.00;;;;;;;;;;6181886;23;20025;-55
2022/08/17 13:24:01;;;;;;;9.27;6.25;;;;;;;;;;6182146;23;20025;-53
2022/08/17 13:26:45;;;;;;;7.88;5.78;;;;;;;;;;6181735;23;20056;-55
2022/08/17 13:29:22;;;;;;;8.70;6.78;;;;;;;;;;6155226;23;20533;-55
2022/08/17 13:32:14;;;;;;;12.38;6.78;;;;;;;;;;6181358;23;20032;-54
2022/08/17 13:34:45;;;;;;;9.40;5.88;;;;;;;;;;6181930;23;20017;-56
2022/08/17 13:37:39;;;;;;;11.07;6.18;;;;;;;;;;6181430;23;20054;-51
2022/08/17 13:40:11;;;;;;;11.27;6.47;;;;;;;;;;6181628;23;20028;-55
2022/08/17 13:42:46;;;;;;;7.57;5.70;;;;;;;;;;6181375;23;20029;-52
2022/08/17 13:48:16;;;;;;;6.95;5.88;;;;;;;;;;6181659;23;20083;-51
2022/08/17 13:50:45;;;;;;;6.90;5.70;;;;;;;;;;6181743;23;20029;-55
2022/08/17 13:53:21;;;;;;;10.07;5.93;;;;;;;;;;6181320;23;20021;-54
2022/08/17 13:56:06;;;;;;;9.18;5.93;;;;;;;;;;6155246;23;20059;-61
2022/08/17 13:59:09;;;;;;;11.23;5.97;;;;;;;;;;6180908;23;20104;-60
2022/08/17 14:01:37;;;;;;;7.20;5.30;;;;;;;;;;6181870;23;20419;-60
2022/08/17 14:04:24;;;;;;;7.00;5.57;;;;;;;;;;6181379;23;20092;-59
2022/08/17 14:06:55;;;;;;;8.88;5.78;;;;;;;;;;6180220;23;20406;-59
2022/08/17 14:09:32;;;;;;;8.90;5.97;;;;;;;;;;6180762;23;20024;-60
2022/08/17 14:12:06;;;;;;;7.50;6.15;;;;;;;;;;6181198;23;20072;-60
2022/08/17 14:14:41;;;;;;;9.15;5.90;;;;;;;;;;6181879;23;20079;-52
2022/08/17 14:17:09;;;;;;;7.38;5.82;;;;;;;;;;6154086;23;20063;-53
2022/08/17 14:19:37;;;;;;;7.85;5.90;;;;;;;;;;6181260;23;20021;-60
2022/08/17 14:22:16;;;;;;;7.78;6.10;;;;;;;;;;6179881;23;20056;-60
2022/08/17 14:24:50;;;;;;;6.85;5.93;;;;;;;;;;6179841;23;20058;-59
2022/08/17 14:27:32;;;;;;;9.50;7.13;;;;;;;;;;6181681;23;20025;-60
2022/08/17 14:30:18;;;;;;;8.80;6.22;;;;;;;;;;6182106;23;20054;-60
2022/08/17 14:32:56;;;;;;;7.18;6.05;;;;;;;;;;6179466;23;20084;-54
2022/08/17 14:35:26;;;;;;;7.60;6.22;;;;;;;;;;6181655;23;20021;-60
2022/08/17 14:38:03;;;;;;;9.32;6.68;;;;;;;;;;6157061;23;20355;-66
2022/08/17 14:40:30;;;;;;;12.07;6.88;;;;;;;;;;6179811;23;20029;-66
2022/08/17 14:42:58;;;;;;;;;;;;;;;;;;6181315;23;20021;-66
2022/08/17 14:45:31;;;;;;;16.20;8.10;;;;;;;;;;6180833;23;20341;-65
2022/08/17 14:48:01;;;;;;;10.63;8.07;;;;;;;;;;6180609;23;20028;-66
2022/08/17 14:50:28;;;;;;;12.20;7.50;;;;;;;;;;6181403;23;20029;-65
2022/08/17 14:53:03;;;;;;;10.38;7.75;;;;;;;;;;6180748;23;20343;-53
2022/08/17 14:55:31;;;;;;;11.80;7.90;;;;;;;;;;6180531;23;20057;-61
2022/08/17 14:57:58;;;;;;;9.82;7.63;;;;;;;;;;6179374;23;20021;-57
2022/08/17 15:00:33;;;;;;;8.77;6.93;;;;;;;;;;6180792;23;20025;-57
2022/08/17 15:03:00;;;;;;;;;;;;;;;;;;6180687;23;20067;-58
2022/08/17 15:05:32;;;;;;;10.90;7.50;;;;;;;;;;6178865;23;19920;-58
2022/08/17 15:08:06;;;;;;;9.38;7.28;;;;;;;;;;6180022;23;20355;-59
2022/08/17 15:10:33;;;;;;;;;;;;;;;;;;6180444;23;20032;-58
2022/08/17 15:13:00;;;;;;;13.20;8.10;;;;;;;;;;6179480;23;19920;-66
2022/08/17 15:15:33;;;;;;;9.75;7.20;;;;;;;;;;6181023;23;20028;-58
2022/08/17 15:18:01;;;;;;;10.00;7.55;;;;;;;;;;6180728;23;20024;-57
2022/08/17 15:20:29;;;;;;;11.18;7.35;;;;;;;;;;6177880;23;20108;-55
2022/08/17 15:23:05;;;;;;;11.38;7.47;;;;;;;;;;6180010;23;20088;-56
2022/08/17 15:25:39;;;;;;;12.15;7.38;;;;;;;;;;6178208;23;20036;-57
2022/08/17 15:28:14;;;;;;;14.55;8.43;;;;;;;;;;6180456;23;20506;-58
2022/08/17 15:30:43;;;;;;;9.98;6.93;;;;;;;;;;6180296;23;20029;-60
2022/08/17 15:33:14;;;;;;;12.02;7.72;;;;;;;;;;6178642;23;20021;-56
2022/08/17 15:35:52;;;;;;;10.77;7.80;;;;;;;;;;6179378;23;20475;-54
2022/08/17 15:38:21;;;;;;;10.52;7.97;;;;;;;;;;6178561;23;20084;-56
2022/08/17 15:40:57;;;;;;;12.98;8.40;;;;;;;;;;6178765;23;20355;-56
2022/08/17 15:43:26;;;;;;;14.32;7.85;;;;;;;;;;6179367;23;20482;-54
2022/08/17 15:45:58;;;;;;;12.80;8.02;;;;;;;;;;6179994;23;20352;-55
2022/08/17 15:48:42;;;;;;;12.95;7.68;;;;;;;;;;6179104;23;20091;-54